Capitol Logistics 11




VHHH
Chek Lap Kok International
Hong Kong, HK
PANC
Ted Stevens Anchorage International Airport
Anchorage, US

Route Details

Aircraft Information
Primary: Boeing 747-400BCF
Backup: Not Available
Route Data
Distance: 4414nm
Duration: 9h 00m
Recm'd Route: OCEAN V3 ENVAR M750 MEXIR M750 BUNGU Y81 SYOYU Y809 SPEAR Y808 PEXEL A590 POWAL A590 PINSO A590 HAMND NEELL6
Origin Wx: VHHH 142030Z 10019KT 9999 FEW010 SCT020 23/20 Q1011 NOSIG
Dest. Wx: PANC 142053Z 25008KT 10SM BKN065 OVC110 03/M02 A2969 RMK AO2 SLP056 60001 T00331022 51024
Notes: